Time;durP1;ratioP1;P1;durP2;ratioP2;P2;SDS_P1;SDS_P2;PMS_P1;PMS_P2;Temp;Humidity;BMP_temperature;BMP_pressure;BME280_temperature;BME280_humidity;BME280_pressure;Samples;Min_cycle;Max_cycle;Signal;HPM_P1;HPM_P2
2022/07/18 00:01:03;;;;;;;2.30;2.20;;;22.40;99.90;;;22.80;55.03;102293.16;5052709;28;20033;-62
2022/07/18 00:03:31;;;;;;;2.53;2.40;;;22.40;99.90;;;22.93;54.95;102290.00;5053767;28;20192;-61
2022/07/18 00:06:00;;;;;;;3.40;3.30;;;22.40;99.90;;;22.64;56.43;102287.34;5056071;28;20048;-61
2022/07/18 00:08:29;;;;;;;2.63;2.53;;;22.20;99.90;;;22.65;56.99;102288.25;5056067;28;20128;-61
2022/07/18 00:10:58;;;;;;;2.72;2.63;;;22.10;99.90;;;22.53;57.38;102284.06;5056307;28;20037;-62
2022/07/18 00:13:27;;;;;;;2.30;2.20;;;22.00;99.90;;;22.56;58.14;102278.59;5056242;28;20451;-61
2022/07/18 00:15:55;;;;;;;2.40;2.30;;;22.00;99.90;;;22.58;57.33;102286.66;5055979;28;20398;-62
2022/07/18 00:18:24;;;;;;;2.40;2.30;;;22.10;99.90;;;22.73;57.98;102284.34;5056471;28;20041;-62
2022/07/18 00:20:52;;;;;;;2.20;2.10;;;22.20;99.90;;;22.69;57.42;102281.78;5055886;28;20037;-61
2022/07/18 00:23:21;;;;;;;2.80;2.70;;;22.20;99.90;;;22.64;58.50;102286.47;5056413;28;20075;-61
2022/07/18 00:25:50;;;;;;;2.40;2.30;;;22.10;99.90;;;22.52;59.34;102276.03;5055873;28;20045;-62
2022/07/18 00:28:19;;;;;;;2.30;2.20;;;22.00;99.90;;;22.48;62.75;102280.63;5056042;28;20089;-62
2022/07/18 00:30:48;;;;;;;2.33;2.23;;;22.00;99.90;;;22.35;65.09;102263.06;5055754;28;20116;-62
2022/07/18 00:33:16;;;;;;;2.38;2.28;;;21.90;99.90;;;22.36;65.38;102279.19;5055887;28;20044;-61
2022/07/18 00:35:45;;;;;;;2.40;2.30;;;21.90;99.90;;;22.39;66.12;102275.53;5055624;28;20076;-62
2022/07/18 00:38:13;;;;;;;2.70;2.60;;;21.90;99.90;;;22.38;63.68;102273.75;5055462;28;20072;-61
2022/07/18 00:40:42;;;;;;;2.33;2.22;;;21.90;99.90;;;22.26;60.80;102257.97;5055763;28;20091;-62
2022/07/18 00:43:14;;;;;;;2.40;2.30;;;21.90;99.90;;;22.49;59.74;102281.53;5055470;28;20075;-61
2022/07/18 00:45:47;;;;;;;2.35;2.25;;;22.00;99.90;;;22.53;59.30;102272.41;5055303;28;20132;-62
2022/07/18 00:48:16;;;;;;;2.30;2.20;;;22.00;99.90;;;22.48;57.66;102271.66;5055729;28;20041;-61
2022/07/18 00:50:45;;;;;;;2.42;2.33;;;22.00;99.90;;;22.67;58.01;102275.56;5055364;28;20033;-61
2022/07/18 00:53:14;;;;;;;2.47;2.38;;;22.10;99.90;;;22.66;56.17;102269.31;5055529;28;20053;-61
2022/07/18 00:55:45;;;;;;;2.50;2.40;;;22.20;99.90;;;22.24;56.83;102189.72;5055166;28;20132;-62
2022/07/18 00:58:14;;;;;;;2.55;2.45;;;22.20;99.90;;;22.82;57.65;102269.69;5053871;28;20090;-62
2022/07/18 01:03:30;;;;;;;2.30;2.20;;;22.30;99.90;;;22.74;54.17;102263.66;5055364;28;20037;-61
2022/07/18 01:05:58;;;;;;;2.50;2.40;;;22.30;99.90;;;22.67;53.44;102264.78;5055263;28;20494;-61
2022/07/18 01:08:28;;;;;;;2.45;2.35;;;22.20;99.90;;;22.64;54.54;102270.28;5054862;28;20106;-61
2022/07/18 01:10:56;;;;;;;2.50;2.40;;;22.10;99.90;;;22.66;54.66;102257.63;5055441;28;20045;-62
2022/07/18 01:13:25;;;;;;;2.20;2.10;;;22.10;99.90;;;22.26;54.11;102206.75;5054762;28;20127;-61
2022/07/18 01:15:53;;;;;;;2.30;2.20;;;22.00;99.90;;;22.26;54.79;102256.13;5054116;28;20091;-62
2022/07/18 01:18:22;;;;;;;2.47;2.38;;;21.80;99.90;;;22.16;56.73;102251.09;5055147;28;20037;-62
2022/07/18 01:20:52;;;;;;;2.67;2.58;;;21.70;99.90;;;22.19;55.48;102256.38;5055163;28;20041;-62
2022/07/18 01:23:21;;;;;;;2.80;2.70;;;21.70;99.90;;;22.26;54.62;102260.66;5054971;28;20048;-62
2022/07/18 01:25:49;;;;;;;2.70;2.60;;;21.70;99.90;;;22.33;54.11;102267.63;5054948;28;20236;-62
2022/07/18 01:28:18;;;;;;;3.63;3.42;;;21.80;99.90;;;22.14;53.93;102263.72;5054852;28;20122;-61
2022/07/18 01:30:46;;;;;;;2.78;2.67;;;21.60;99.90;;;22.08;54.29;102256.72;5054529;28;20463;-62
2022/07/18 01:33:15;;;;;;;2.47;2.38;;;21.60;99.90;;;22.15;53.80;102257.38;5054678;28;20043;-61
2022/07/18 01:35:44;;;;;;;2.20;2.10;;;21.60;99.90;;;22.05;53.68;102246.00;5054678;28;20411;-62
2022/07/18 01:38:14;;;;;;;2.45;2.35;;;21.60;99.90;;;22.07;53.60;102251.34;5054487;28;20411;-61
2022/07/18 01:40:42;;;;;;;2.50;2.40;;;21.50;99.90;;;22.11;53.99;102247.63;5054638;28;20049;-62
2022/07/18 01:43:10;;;;;;;2.47;2.38;;;21.60;99.90;;;22.20;53.18;102244.69;5053230;28;20099;-63
2022/07/18 01:45:39;;;;;;;2.45;2.35;;;21.70;99.90;;;22.33;52.42;102254.16;5069865;28;20060;-61
2022/07/18 01:48:07;;;;;;;2.53;2.42;;;21.80;99.90;;;22.41;52.76;102254.78;5054208;28;20102;-62
2022/07/18 01:50:36;;;;;;;2.25;2.15;;;21.90;99.90;;;22.42;52.68;102249.34;5054433;28;20041;-61
2022/07/18 01:53:04;;;;;;;2.50;2.40;;;21.90;99.90;;;22.41;52.50;102242.16;5054331;28;20119;-61
2022/07/18 01:55:34;;;;;;;2.50;2.40;;;21.90;99.90;;;22.23;52.83;102221.19;5054065;28;20049;-61
2022/07/18 01:58:05;;;;;;;2.55;2.45;;;21.90;99.90;;;22.31;52.70;102235.31;5054138;28;20049;-61
2022/07/18 02:00:33;;;;;;;2.65;2.55;;;21.90;99.90;;;22.44;53.94;102247.47;5054230;28;20041;-61
2022/07/18 02:03:01;;;;;;;2.60;2.50;;;22.00;99.90;;;22.44;53.11;102241.19;5054179;28;20108;-61
2022/07/18 02:05:30;;;;;;;2.50;2.40;;;21.90;99.90;;;22.31;52.55;102229.03;5052783;28;20053;-61
2022/07/18 02:07:59;;;;;;;2.30;2.20;;;21.80;99.90;;;22.13;52.64;102200.81;5053806;28;20461;-62
2022/07/18 02:10:27;;;;;;;2.38;2.28;;;21.70;99.90;;;22.39;53.51;102227.00;5054367;28;20052;-61
2022/07/18 02:12:57;;;;;;;2.50;2.40;;;21.80;99.90;;;22.26;52.09;102225.63;5053753;28;20087;-61
2022/07/18 02:15:26;;;;;;;2.40;2.30;;;21.80;99.90;;;22.33;52.07;102224.47;5054063;28;20041;-61
2022/07/18 02:17:54;;;;;;;2.50;2.40;;;21.80;99.90;;;22.38;51.81;102220.69;5053688;28;20068;-61
2022/07/18 02:20:23;;;;;;;2.70;2.60;;;21.80;99.90;;;22.42;55.52;102221.50;5053519;28;20041;-61
2022/07/18 02:22:51;;;;;;;2.60;2.50;;;21.90;99.90;;;22.45;55.83;102213.31;5053613;28;20487;-61
2022/07/18 02:25:20;;;;;;;2.60;2.50;;;21.90;99.90;;;22.44;57.80;102212.44;5053592;28;20040;-61
2022/07/18 02:27:48;;;;;;;2.58;2.47;;;22.00;99.90;;;22.40;55.31;102210.75;5052615;28;20041;-61
2022/07/18 02:30:18;;;;;;;2.40;2.30;;;21.90;99.90;;;22.35;58.13;102201.94;5053453;28;20461;-61
2022/07/18 02:32:46;;;;;;;2.33;2.23;;;21.90;99.90;;;22.29;59.07;102199.44;5053476;28;20561;-61
2022/07/18 02:35:14;;;;;;;2.65;2.55;;;21.80;99.90;;;22.13;60.20;102192.75;5053354;28;20037;-61
2022/07/18 02:37:43;;;;;;;2.63;2.53;;;21.70;99.90;;;22.13;57.28;102197.25;5053524;28;20135;-61
2022/07/18 02:40:12;;;;;;;3.78;3.58;;;21.60;99.90;;;22.17;56.50;102189.03;5052280;28;20072;-62
2022/07/18 02:42:41;;;;;;;2.60;2.50;;;21.70;99.90;;;22.01;54.26;102182.34;5053260;28;20041;-62
2022/07/18 02:45:11;;;;;;;2.47;2.38;;;21.60;99.90;;;22.02;53.29;102186.81;5052451;28;20406;-61
2022/07/18 02:47:41;;;;;;;2.27;2.17;;;21.50;99.90;;;21.96;54.14;102189.69;5053548;28;20045;-61
2022/07/18 02:50:10;;;;;;;2.60;2.50;;;21.50;99.90;;;22.02;52.50;102192.19;5051957;28;20055;-62
2022/07/18 02:52:41;;;;;;;2.53;2.42;;;21.60;99.90;;;22.06;51.94;102190.28;5052161;28;20475;-61
2022/07/18 02:55:11;;;;;;;2.78;2.67;;;21.60;99.90;;;22.17;52.03;102188.13;5053296;28;20057;-61
2022/07/18 02:57:40;;;;;;;2.15;2.05;;;21.70;99.90;;;22.23;52.75;102194.22;5053414;28;20494;-61
2022/07/18 03:00:12;;;;;;;2.63;2.53;;;21.80;99.90;;;22.05;53.02;102140.88;5052927;28;20499;-61
2022/07/18 03:02:42;;;;;;;2.60;2.50;;;21.90;99.90;;;22.51;53.05;102193.34;5053040;28;20041;-61
2022/07/18 03:05:11;;;;;;;2.45;2.35;;;22.00;99.90;;;22.42;52.63;102194.50;5053033;28;20068;-61
2022/07/18 03:07:40;;;;;;;2.42;2.33;;;22.00;99.90;;;22.37;52.25;102194.69;5053453;28;20041;-61
2022/07/18 03:10:10;;;;;;;2.85;2.75;;;22.00;99.90;;;22.43;53.08;102193.59;5053146;28;20486;-61
2022/07/18 03:12:41;;;;;;;2.90;2.80;;;22.00;99.90;;;22.42;53.85;102194.50;5052951;28;20099;-61
2022/07/18 03:15:10;;;;;;;2.35;2.25;;;22.00;99.90;;;22.43;55.15;102189.06;5068725;28;20045;-61
2022/07/18 03:17:40;;;;;;;2.38;2.28;;;22.00;99.90;;;22.42;56.42;102176.53;5052904;28;20076;-61
2022/07/18 03:20:10;;;;;;;2.87;2.77;;;22.00;99.90;;;22.19;56.42;102160.22;5051949;28;20550;-61
2022/07/18 03:22:38;;;;;;;2.75;2.65;;;22.00;99.90;;;22.24;55.23;102174.41;5053336;28;20041;-61
2022/07/18 03:25:08;;;;;;;2.53;2.42;;;21.90;99.90;;;22.18;54.76;102171.03;5053020;28;20076;-61
2022/07/18 03:27:43;;;;;;;2.75;2.65;;;21.80;99.90;;;22.21;54.63;102169.13;5051803;28;20071;-61
2022/07/18 03:30:12;;;;;;;2.95;2.85;;;21.90;99.90;;;22.19;54.83;102162.91;5052771;28;20079;-61
2022/07/18 03:32:42;;;;;;;2.83;2.72;;;21.80;99.90;;;22.12;55.07;102172.13;5052709;28;20110;-61
2022/07/18 03:35:10;;;;;;;2.53;2.42;;;21.70;99.90;;;22.10;57.31;102165.91;5052741;28;20431;-61
2022/07/18 03:37:39;;;;;;;2.58;2.47;;;21.70;99.90;;;22.09;56.56;102166.81;5052670;28;20465;-61
2022/07/18 03:40:09;;;;;;;2.42;2.33;;;21.60;99.90;;;21.92;59.73;102158.38;5056460;28;20525;-61
2022/07/18 03:42:38;;;;;;;2.40;2.30;;;21.60;99.90;;;21.80;60.74;102158.72;5056997;28;20045;-61
2022/07/18 03:45:08;;;;;;;2.20;2.10;;;21.50;99.90;;;21.76;61.42;102154.31;5056488;28;20041;-61
2022/07/18 03:47:36;;;;;;;2.40;2.30;;;21.30;99.90;;;21.65;60.85;102152.88;5056468;28;20630;-61
2022/07/18 03:50:08;;;;;;;2.42;2.33;;;21.30;99.90;;;21.60;62.52;102147.66;5056668;28;20064;-61
2022/07/18 03:52:36;;;;;;;2.53;2.42;;;21.20;99.90;;;21.53;64.78;102151.44;5056651;28;20090;-61
2022/07/18 03:55:06;;;;;;;2.58;2.47;;;21.20;99.90;;;21.53;62.24;102141.56;5056398;28;20132;-61
2022/07/18 03:57:34;;;;;;;2.63;2.53;;;21.10;99.90;;;21.35;58.71;102119.69;5056509;28;20049;-61
2022/07/18 04:00:03;;;;;;;2.70;2.60;;;21.00;99.90;;;21.12;56.57;102114.03;5056112;28;20123;-61
2022/07/18 04:02:40;;;;;;;2.30;2.20;;;20.80;99.90;;;21.31;58.65;102142.22;5056410;28;20076;-61
2022/07/18 04:05:10;;;;;;;2.35;2.25;;;20.80;99.90;;;21.41;58.99;102141.91;5056148;28;20045;-65
2022/07/18 04:07:40;;;;;;;2.88;2.78;;;20.90;99.90;;;21.33;55.89;102121.53;5056176;28;20094;-62
2022/07/18 04:10:09;;;;;;;2.97;2.88;;;20.90;99.90;;;21.52;54.90;102138.91;5056089;28;20467;-61
2022/07/18 04:12:47;;;;;;;2.33;2.23;;;21.00;99.90;;;21.58;57.44;102149.50;5056033;28;20094;-62
2022/07/18 04:15:15;;;;;;;2.88;2.78;;;21.10;99.90;;;21.11;56.91;102071.91;5056106;28;20486;-63
2022/07/18 04:17:44;;;;;;;2.40;2.30;;;21.10;99.90;;;21.27;54.97;102121.69;5055969;28;20167;-62
2022/07/18 04:20:16;;;;;;;2.80;2.70;;;20.90;99.90;;;21.25;54.46;102140.56;5055813;28;20098;-62
2022/07/18 04:22:50;;;;;;;2.47;2.38;;;20.80;99.90;;;21.23;54.91;102134.38;5056147;28;20044;-62
2022/07/18 04:25:21;;;;;;;2.40;2.30;;;20.70;99.90;;;21.27;55.02;102130.63;5055765;28;20076;-62
2022/07/18 04:27:50;;;;;;;2.50;2.40;;;20.80;99.90;;;21.28;54.73;102139.59;5054794;28;20116;-63
2022/07/18 04:30:22;;;;;;;2.20;2.10;;;20.80;99.90;;;21.25;54.44;102131.63;5055781;28;20198;-63
2022/07/18 04:32:51;;;;;;;2.20;2.10;;;20.70;99.90;;;21.22;54.13;102134.38;5056021;28;20453;-63
2022/07/18 04:35:23;;;;;;;;;;;20.70;99.90;;;21.27;54.79;102156.69;5055078;28;20482;-63
2022/07/18 04:37:52;;;;;;;2.67;2.58;;;20.70;99.90;;;21.35;54.14;102131.31;5088236;28;19967;-63
2022/07/18 04:40:20;;;;;;;2.50;2.40;;;20.80;99.90;;;21.45;53.81;102134.59;5055757;28;20037;-62
2022/07/18 04:42:49;;;;;;;2.83;2.72;;;20.90;99.90;;;21.58;53.68;102129.75;5054502;28;20477;-63
2022/07/18 04:45:21;;;;;;;2.75;2.65;;;21.10;99.90;;;21.61;53.90;102135.03;5055457;28;20128;-62
2022/07/18 04:47:50;;;;;;;2.50;2.40;;;21.20;99.90;;;21.61;53.85;102130.56;5055473;28;20092;-63
2022/07/18 04:50:20;;;;;;;2.67;2.58;;;21.20;99.90;;;21.60;54.71;102109.94;5054311;28;20049;-63
2022/07/18 04:52:50;;;;;;;2.47;2.38;;;21.30;99.90;;;21.88;54.74;102148.63;5087837;28;20414;-62
2022/07/18 04:55:22;;;;;;;4.32;4.03;;;21.40;99.90;;;21.85;53.94;102112.81;5055934;28;20045;-62
2022/07/18 04:57:51;;;;;;;2.55;2.45;;;21.50;99.90;;;22.03;53.38;102131.06;5054255;28;20474;-62
2022/07/18 05:00:25;;;;;;;2.45;2.35;;;21.60;99.90;;;22.12;52.92;102139.78;5054027;28;20570;-63
2022/07/18 05:02:56;;;;;;;2.65;2.55;;;21.70;99.90;;;22.02;52.62;102129.31;5055221;28;20037;-62
2022/07/18 05:05:26;;;;;;;2.88;2.78;;;21.70;99.90;;;22.25;52.47;102159.13;5055345;28;20445;-62
2022/07/18 05:08:05;;;;;;;2.70;2.60;;;21.80;99.90;;;22.40;52.24;102158.63;5055306;28;20044;-63
2022/07/18 05:10:34;;;;;;;;;;;22.00;99.90;;;22.48;52.53;102147.56;5055452;28;20491;-62
2022/07/18 05:13:02;;;;;;;2.65;2.55;;;22.10;99.90;;;22.63;52.90;102160.63;5054941;28;20015;-62
2022/07/18 05:15:31;;;;;;;2.42;2.33;;;22.20;99.90;;;22.76;53.16;102156.56;5055211;28;20080;-63
2022/07/18 05:17:59;;;;;;;2.50;2.40;;;22.40;99.90;;;22.74;52.81;102150.34;5055088;28;20071;-62
2022/07/18 05:20:28;;;;;;;2.85;2.75;;;22.40;99.90;;;22.82;53.23;102143.72;5054711;28;20124;-62
2022/07/18 05:22:56;;;;;;;2.50;2.40;;;22.60;99.90;;;22.92;52.52;102149.69;5054752;28;20560;-62
2022/07/18 05:25:27;;;;;;;2.33;2.22;;;22.60;99.90;;;22.94;52.70;102150.50;5054707;28;20131;-62
2022/07/18 05:27:55;;;;;;;;;;;22.60;99.90;;;22.93;52.04;102146.06;5054099;28;20051;-62
2022/07/18 05:30:24;;;;;;;2.72;2.63;;;22.60;99.90;;;22.94;52.75;102134.31;5054816;28;20015;-62
2022/07/18 05:32:53;;;;;;;2.60;2.50;;;22.70;99.90;;;23.20;52.20;102150.47;5055046;28;20037;-63
2022/07/18 05:35:22;;;;;;;2.20;2.10;;;22.80;99.90;;;23.04;51.93;102117.75;5054490;28;20075;-62
2022/07/18 05:37:51;;;;;;;2.35;2.25;;;22.90;99.90;;;23.44;52.83;102151.44;5054652;28;20040;-63
2022/07/18 05:40:19;;;;;;;2.42;2.33;;;23.10;99.90;;;23.28;51.87;102127.66;5053305;28;20140;-63
2022/07/18 05:42:50;;;;;;;2.80;2.70;;;23.10;99.90;;;23.35;51.48;102147.25;5054560;28;20086;-63
2022/07/18 05:45:22;;;;;;;6.97;3.20;;;23.10;99.90;;;23.16;51.19;102135.31;5053480;28;20044;-62
2022/07/18 05:47:51;;;;;;;2.42;2.33;;;22.90;99.90;;;23.06;51.77;102147.38;5054795;28;20063;-62
2022/07/18 05:50:20;;;;;;;2.88;2.72;;;22.70;99.90;;;22.91;52.72;102150.63;5054359;28;20495;-63
2022/07/18 05:52:49;;;;;;;3.00;2.90;;;22.50;99.90;;;22.84;55.34;102135.59;5052995;28;20048;-62
2022/07/18 05:55:17;;;;;;;2.42;2.33;;;22.40;99.90;;;22.38;56.44;102055.31;5054131;28;20049;-63
2022/07/18 05:57:46;;;;;;;2.80;2.70;;;22.30;99.90;;;22.96;55.67;102132.44;5052925;28;20079;-63
2022/07/18 06:00:18;;;;;;;2.50;2.40;;;22.50;99.90;;;23.20;56.53;102131.56;5053974;28;20439;-63
2022/07/18 06:02:48;;;;;;;2.50;2.40;;;22.60;99.90;;;23.38;56.55;102109.34;5053728;28;20091;-63
2022/07/18 06:05:18;;;;;;;2.75;2.65;;;23.00;99.90;;;23.34;55.42;102132.00;5053807;28;20041;-63
2022/07/18 06:07:51;;;;;;;2.75;2.65;;;23.00;99.90;;;23.17;57.07;102131.69;5053892;28;20463;-63
2022/07/18 06:10:20;;;;;;;2.95;2.85;;;22.80;99.90;;;23.01;56.63;102107.06;5053700;28;20033;-63
2022/07/18 06:12:50;;;;;;;2.40;2.30;;;22.70;99.90;;;23.10;57.65;102147.22;5053801;28;20041;-63
2022/07/18 06:15:20;;;;;;;2.28;2.17;;;22.70;99.90;;;22.83;57.28;102042.06;5053677;28;20468;-63
2022/07/18 06:17:49;;;;;;;2.45;2.35;;;22.80;99.90;;;23.42;57.89;102121.78;5054201;28;20451;-62
2022/07/18 06:20:18;;;;;;;2.40;2.30;;;23.00;99.90;;;23.43;57.37;102128.94;5053985;28;20044;-63
2022/07/18 06:22:47;;;;;;;2.60;2.50;;;23.10;99.90;;;23.64;58.53;102133.53;5053849;28;20389;-63
2022/07/18 06:25:15;;;;;;;2.30;2.20;;;23.20;99.90;;;23.93;58.40;102130.56;5053475;28;20123;-63
2022/07/18 06:27:44;;;;;;;2.70;2.60;;;23.50;99.90;;;24.07;56.58;102130.94;5053500;28;20041;-63
2022/07/18 06:30:13;;;;;;;2.45;2.35;;;23.70;99.90;;;24.18;55.00;102125.97;5053355;28;20079;-63
2022/07/18 06:32:43;;;;;;;2.40;2.30;;;23.80;99.90;;;24.30;54.92;102130.00;5053440;28;20460;-63
2022/07/18 06:35:11;;;;;;;2.08;1.98;;;24.00;99.90;;;24.34;52.94;102125.34;5052369;28;20041;-63
2022/07/18 06:37:40;;;;;;;2.60;2.50;;;24.00;99.90;;;24.53;52.66;102131.75;5053391;28;20037;-60
2022/07/18 06:40:09;;;;;;;2.30;2.20;;;24.10;99.90;;;24.62;50.79;102136.78;5053460;28;20095;-59
2022/07/18 06:42:38;;;;;;;2.30;2.20;;;24.40;99.90;;;24.49;47.51;102131.00;5052215;28;20037;-59
2022/07/18 06:45:08;;;;;;;2.20;2.10;;;24.20;99.90;;;24.60;48.16;102138.69;5053211;28;20611;-59
2022/07/18 06:47:42;;;;;;;2.53;2.42;;;24.40;99.90;;;24.74;47.66;102134.47;5053283;28;20064;-59
2022/07/18 06:50:12;;;;;;;2.20;2.10;;;24.40;99.90;;;24.96;47.64;102139.84;5053225;28;20121;-61
2022/07/18 06:52:41;;;;;;;2.17;2.08;;;24.60;99.90;;;25.06;47.88;102138.50;5053612;28;20046;-60
2022/07/18 06:55:11;;;;;;;19.63;11.45;;;24.80;99.90;;;25.24;45.90;102140.34;5053276;28;20083;-61
2022/07/18 06:57:41;;;;;;;2.65;2.55;;;24.90;99.90;;;25.35;45.94;102121.81;5053078;28;20041;-60
2022/07/18 07:00:13;;;;;;;2.10;2.00;;;25.10;99.90;;;25.52;46.55;102132.78;5052869;28;20414;-61
2022/07/18 07:02:44;;;;;;;2.33;2.17;;;25.30;99.90;;;25.40;46.67;102127.91;5052113;28;20052;-60
2022/07/18 07:05:14;;;;;;;2.10;2.00;;;25.20;99.90;;;25.13;44.78;102122.81;5053292;28;20048;-60
2022/07/18 07:07:44;;;;;;;2.58;2.47;;;24.80;99.90;;;25.29;44.86;102129.31;5053210;28;20230;-59
2022/07/18 07:10:18;;;;;;;2.20;2.10;;;24.80;99.90;;;25.47;45.47;102129.41;5053188;28;20041;-60
2022/07/18 07:12:48;;;;;;;;;;;25.10;99.90;;;25.39;45.84;102126.16;5052876;28;20095;-60
2022/07/18 07:15:20;;;;;;;3.08;2.88;;;25.10;99.90;;;25.62;45.33;102119.69;5052879;28;19924;-60
2022/07/18 07:17:50;;;;;;;1.92;1.88;;;25.30;99.90;;;25.58;45.65;102131.59;5053497;28;20064;-61
2022/07/18 07:20:21;;;;;;;2.00;1.90;;;25.30;99.90;;;25.71;44.35;102132.78;5052006;28;20049;-60
2022/07/18 07:22:52;;;;;;;2.05;1.95;;;25.50;99.90;;;25.60;44.23;102122.47;5052716;28;20037;-60
2022/07/18 07:25:22;;;;;;;2.13;2.03;;;25.40;99.90;;;25.80;44.48;102133.22;5068562;28;20052;-60
2022/07/18 07:27:51;;;;;;;;;;;25.50;99.90;;;25.74;45.29;102124.53;5053747;28;20055;-60
2022/07/18 07:30:20;;;;;;;2.13;2.03;;;25.40;99.90;;;25.95;43.56;102118.06;5052984;28;19921;-60
2022/07/18 07:32:51;;;;;;;1.85;1.83;;;25.60;99.90;;;25.99;42.38;102116.09;5052633;28;20037;-60
2022/07/18 07:35:19;;;;;;;;;;;25.70;99.90;;;26.27;43.36;102124.66;5053491;28;20045;-60
2022/07/18 07:37:51;;;;;;;2.30;2.20;;;25.90;99.90;;;26.43;42.51;102128.38;5052969;28;19921;-60
2022/07/18 07:40:20;;;;;;;1.85;1.85;;;26.10;99.90;;;25.97;42.70;102058.31;5052987;28;20465;-61
2022/07/18 07:42:49;;;;;;;2.17;2.08;;;26.10;99.90;;;26.60;40.56;102131.13;5052535;28;20051;-60
2022/07/18 07:45:18;;;;;;;2.38;2.28;;;26.30;99.90;;;26.73;40.01;102116.84;5052664;28;20445;-60
2022/07/18 07:47:47;;;;;;;2.13;2.03;;;26.50;99.90;;;26.95;39.64;102122.06;5052634;28;20047;-60
2022/07/18 07:50:17;;;;;;;1.75;1.75;;;26.70;99.90;;;27.18;41.92;102126.28;5051549;28;20410;-60
2022/07/18 07:52:45;;;;;;;2.00;1.90;;;26.90;99.90;;;27.14;39.71;102128.28;5052611;28;20037;-60
2022/07/18 07:55:13;;;;;;;1.70;1.70;;;27.00;99.90;;;27.28;39.96;102125.72;5051251;28;20320;-60
2022/07/18 07:57:42;;;;;;;1.70;1.70;;;27.00;99.90;;;27.39;39.91;102104.28;5052432;28;20530;-62
2022/07/18 08:00:11;;;;;;;1.60;1.60;;;27.20;99.90;;;27.72;40.16;102127.88;5052425;28;20076;-61
2022/07/18 08:02:52;;;;;;;1.50;1.50;;;27.40;99.90;;;27.88;40.00;102120.59;5052537;28;20048;-62
2022/07/18 08:05:28;;;;;;;1.30;1.30;;;27.60;99.90;;;27.96;39.94;102110.19;5052532;28;20495;-61
2022/07/18 08:07:57;;;;;;;1.58;1.58;;;27.90;99.90;;;28.21;39.94;102125.03;5052541;28;20049;-60
2022/07/18 08:10:26;;;;;;;1.67;1.67;;;28.10;99.90;;;28.38;39.52;102124.03;5068177;28;20451;-61
2022/07/18 08:12:55;;;;;;;1.33;1.33;;;28.20;99.90;;;28.48;38.75;102123.41;5052663;28;20045;-61
2022/07/18 08:15:24;;;;;;;1.30;1.30;;;28.30;99.90;;;28.62;38.00;102124.47;5052591;28;20084;-60
2022/07/18 08:17:53;;;;;;;1.50;1.50;;;28.40;99.90;;;28.71;37.51;102129.38;5051244;28;20049;-60
2022/07/18 08:20:23;;;;;;;1.42;1.42;;;28.50;99.90;;;28.61;37.51;102088.19;5053005;28;20509;-61
2022/07/18 08:22:58;;;;;;;1.27;1.27;;;28.60;99.90;;;28.89;37.59;102123.72;5052634;28;20136;-61
2022/07/18 08:25:29;;;;;;;1.60;1.60;;;28.70;99.90;;;28.95;37.38;102115.16;5053267;28;20045;-61
2022/07/18 08:27:58;;;;;;;1.30;1.30;;;28.70;99.90;;;29.05;38.03;102119.09;5055825;28;20124;-60
2022/07/18 08:30:27;;;;;;;1.23;1.23;;;28.90;99.90;;;29.14;37.72;102124.00;5056215;28;20075;-61
2022/07/18 08:32:56;;;;;;;1.30;1.30;;;28.90;99.90;;;29.18;37.49;102117.38;5055576;28;20102;-62
2022/07/18 08:35:24;;;;;;;1.25;1.25;;;29.00;99.90;;;29.26;36.80;102125.97;5055771;28;20048;-62
2022/07/18 08:37:53;;;;;;;1.20;1.20;;;29.00;99.90;;;29.30;37.37;102130.25;5056027;28;20037;-62
2022/07/18 08:40:22;;;;;;;1.30;1.30;;;29.10;99.90;;;29.36;36.95;102124.38;5055726;28;20044;-62
2022/07/18 08:42:53;;;;;;;1.23;1.23;;;29.10;99.90;;;29.44;36.75;102125.78;5055938;28;20065;-62
2022/07/18 08:45:44;;;;;;;1.20;1.20;;;29.30;99.90;;;29.52;36.40;102120.72;5055768;28;20345;-62
2022/07/18 08:48:15;;;;;;;1.50;1.50;;;29.30;99.90;;;29.47;37.17;102103.75;5055486;28;20474;-62
2022/07/18 08:50:44;;;;;;;;;;;29.30;99.90;;;29.63;36.32;102123.63;5056403;28;20502;-62
2022/07/18 08:53:14;;;;;;;1.08;1.08;;;29.40;99.90;;;29.67;36.93;102120.63;5055716;28;19964;-62
2022/07/18 08:55:45;;;;;;;1.25;1.25;;;29.50;99.90;;;29.73;36.38;102117.53;5055504;28;20076;-62
2022/07/18 08:58:17;;;;;;;0.93;0.93;;;29.50;99.90;;;29.77;36.92;102118.22;5055241;28;20048;-62
2022/07/18 09:01:06;;;;;;;1.25;1.25;;;29.60;99.90;;;29.81;36.42;102122.50;5054065;28;20505;-62
2022/07/18 09:03:35;;;;;;;1.10;1.10;;;29.50;99.90;;;29.83;36.41;102120.53;5055247;28;20036;-62
2022/07/18 09:06:06;;;;;;;1.15;1.15;;;29.60;99.90;;;29.81;35.12;102115.16;5055361;28;20053;-62
2022/07/18 09:08:35;;;;;;;1.20;1.20;;;29.70;99.90;;;29.93;35.79;102121.66;5054052;28;20099;-62
2022/07/18 09:11:10;;;;;;;1.38;1.38;;;29.70;99.90;;;29.93;35.53;102110.75;5054999;28;20041;-61
2022/07/18 09:13:58;;;;;;;1.20;1.20;;;29.80;99.90;;;30.08;35.35;102126.16;5053911;28;20080;-61
2022/07/18 09:16:27;;;;;;;1.15;1.15;;;29.80;99.90;;;30.10;36.22;102122.31;5055337;28;20048;-61
2022/07/18 09:18:55;;;;;;;1.15;1.15;;;29.90;99.90;;;30.15;35.97;102116.56;5054771;28;20045;-61
2022/07/18 09:21:25;;;;;;;1.05;1.05;;;29.90;99.90;;;30.11;35.63;102109.56;5054706;28;20044;-62
2022/07/18 09:24:00;;;;;;;2.00;1.90;;;30.00;99.90;;;30.24;35.77;102113.22;5054560;28;20098;-61
2022/07/18 09:26:40;;;;;;;1.02;1.02;;;30.00;99.90;;;30.31;35.02;102117.34;5054555;28;20112;-61
2022/07/18 09:29:10;;;;;;;1.00;1.00;;;30.10;99.90;;;30.41;35.40;102115.72;5054724;28;20111;-62
2022/07/18 09:31:56;;;;;;;1.10;1.10;;;30.20;99.90;;;30.50;35.98;102115.13;5054670;28;20106;-62
2022/07/18 09:34:37;;;;;;;0.95;0.95;;;30.30;99.90;;;30.58;34.68;102120.06;5054616;28;20053;-62
2022/07/18 09:37:12;;;;;;;0.90;0.90;;;30.40;99.90;;;30.45;33.61;102095.41;5054673;28;20045;-61
2022/07/18 09:39:40;;;;;;;1.13;1.13;;;30.50;99.90;;;30.69;34.13;102112.88;5054465;28;20479;-61
2022/07/18 09:42:18;;;;;;;0.90;0.90;;;30.50;99.90;;;30.78;34.11;102111.34;5054648;28;20386;-61
2022/07/18 09:44:59;;;;;;;0.90;0.90;;;30.60;99.90;;;30.89;33.71;102108.81;5054320;28;20509;-61
2022/07/18 09:47:28;;;;;;;1.00;1.00;;;30.70;99.90;;;30.79;33.46;102078.47;5054385;28;20041;-62
2022/07/18 09:49:56;;;;;;;1.10;1.10;;;30.80;99.90;;;31.03;33.30;102108.69;5054553;28;20128;-61
2022/07/18 09:52:25;;;;;;;1.02;1.02;;;30.80;99.90;;;31.10;33.35;102110.03;5054480;28;20454;-61
2022/07/18 09:55:06;;;;;;;1.17;1.17;;;30.90;99.90;;;31.16;34.29;102115.06;5054101;28;20076;-61
2022/07/18 09:57:37;;;;;;;1.08;1.08;;;31.00;99.90;;;31.21;33.18;102101.94;5054179;28;20453;-61
2022/07/18 10:00:07;;;;;;;1.00;1.00;;;31.10;99.90;;;31.29;34.67;102101.38;5054183;28;20426;-61
2022/07/18 10:02:39;;;;;;;0.90;0.90;;;31.10;99.90;;;31.42;35.03;102111.38;5054315;28;20107;-61
2022/07/18 10:05:09;;;;;;;0.82;0.82;;;31.20;99.90;;;31.48;34.43;102101.84;5053901;28;20133;-60
2022/07/18 10:07:38;;;;;;;1.00;1.00;;;31.40;99.90;;;31.51;31.87;102108.00;5053889;28;20045;-61
2022/07/18 10:10:08;;;;;;;0.80;0.80;;;31.40;99.90;;;31.60;31.80;102106.44;5054125;28;20390;-61
2022/07/18 10:12:38;;;;;;;0.90;0.90;;;31.40;99.90;;;31.69;31.56;102105.75;5054116;28;20098;-61
2022/07/18 10:15:08;;;;;;;0.90;0.90;;;31.50;99.90;;;31.73;32.05;102102.69;5054310;28;20041;-61
2022/07/18 10:17:36;;;;;;;1.00;1.00;;;31.50;99.90;;;31.80;32.08;102103.97;5053812;28;20550;-61
2022/07/18 10:20:09;;;;;;;0.93;0.93;;;31.60;99.90;;;31.88;32.78;102107.03;5053977;28;20045;-61
2022/07/18 10:22:42;;;;;;;0.90;0.90;;;31.70;99.90;;;31.91;32.42;102101.38;5052663;28;20083;-61
2022/07/18 10:25:12;;;;;;;1.00;1.00;;;31.70;99.90;;;31.88;31.64;102100.72;5053608;28;20379;-61
2022/07/18 10:27:53;;;;;;;0.90;0.90;;;31.70;99.90;;;31.98;31.39;102108.13;5054078;28;20056;-61